sensor_id;sensor_type;location;lat;lon;timestamp;P1;durP1;ratioP1;P2;durP2;ratioP2
71290;SDS011;59073;51.994;4.448;2022-08-19T00:01:47;3.44;;;3.44;;
71290;SDS011;59073;51.994;4.448;2022-08-19T00:04:18;4.10;;;4.10;;
71290;SDS011;59073;51.994;4.448;2022-08-19T00:06:46;4.38;;;4.38;;
71290;SDS011;59073;51.994;4.448;2022-08-19T00:09:13;4.36;;;4.36;;
71290;SDS011;59073;51.994;4.448;2022-08-19T00:11:43;4.76;;;4.76;;
71290;SDS011;59073;51.994;4.448;2022-08-19T00:14:10;4.09;;;4.09;;
71290;SDS011;59073;51.994;4.448;2022-08-19T00:16:45;2.58;;;2.58;;
71290;SDS011;59073;51.994;4.448;2022-08-19T00:19:13;3.06;;;3.06;;
71290;SDS011;59073;51.994;4.448;2022-08-19T00:21:39;2.93;;;2.93;;
71290;SDS011;59073;51.994;4.448;2022-08-19T00:24:09;2.96;;;2.96;;
71290;SDS011;59073;51.994;4.448;2022-08-19T00:26:36;3.31;;;3.31;;
71290;SDS011;59073;51.994;4.448;2022-08-19T00:29:03;3.80;;;3.80;;
71290;SDS011;59073;51.994;4.448;2022-08-19T00:31:30;4.05;;;4.05;;
71290;SDS011;59073;51.994;4.448;2022-08-19T00:33:56;4.29;;;4.29;;
71290;SDS011;59073;51.994;4.448;2022-08-19T00:36:24;4.10;;;4.10;;
71290;SDS011;59073;51.994;4.448;2022-08-19T00:38:50;3.99;;;3.99;;
71290;SDS011;59073;51.994;4.448;2022-08-19T00:41:17;3.79;;;3.79;;
71290;SDS011;59073;51.994;4.448;2022-08-19T00:44:03;3.38;;;3.38;;
71290;SDS011;59073;51.994;4.448;2022-08-19T00:46:32;2.95;;;2.95;;
71290;SDS011;59073;51.994;4.448;2022-08-19T00:49:00;3.07;;;3.07;;
71290;SDS011;59073;51.994;4.448;2022-08-19T00:51:56;3.38;;;3.38;;
71290;SDS011;59073;51.994;4.448;2022-08-19T00:54:26;3.21;;;3.21;;
71290;SDS011;59073;51.994;4.448;2022-08-19T00:56:52;3.07;;;3.05;;
71290;SDS011;59073;51.994;4.448;2022-08-19T00:59:18;3.05;;;3.05;;
71290;SDS011;59073;51.994;4.448;2022-08-19T01:01:45;3.59;;;3.59;;
71290;SDS011;59073;51.994;4.448;2022-08-19T01:04:12;4.53;;;4.53;;
71290;SDS011;59073;51.994;4.448;2022-08-19T01:06:38;3.88;;;3.88;;
71290;SDS011;59073;51.994;4.448;2022-08-19T01:09:06;3.22;;;3.22;;
71290;SDS011;59073;51.994;4.448;2022-08-19T01:11:34;3.09;;;3.09;;
71290;SDS011;59073;51.994;4.448;2022-08-19T01:14:03;3.64;;;3.64;;
71290;SDS011;59073;51.994;4.448;2022-08-19T01:16:30;4.16;;;4.16;;
71290;SDS011;59073;51.994;4.448;2022-08-19T01:18:58;4.14;;;4.14;;
71290;SDS011;59073;51.994;4.448;2022-08-19T01:21:29;4.24;;;4.24;;
71290;SDS011;59073;51.994;4.448;2022-08-19T01:24:01;4.50;;;4.50;;
71290;SDS011;59073;51.994;4.448;2022-08-19T01:26:27;4.41;;;4.41;;
71290;SDS011;59073;51.994;4.448;2022-08-19T01:28:55;4.51;;;4.51;;
71290;SDS011;59073;51.994;4.448;2022-08-19T01:31:24;4.45;;;4.45;;
71290;SDS011;59073;51.994;4.448;2022-08-19T01:33:52;4.05;;;4.05;;
71290;SDS011;59073;51.994;4.448;2022-08-19T01:36:24;4.46;;;4.46;;
71290;SDS011;59073;51.994;4.448;2022-08-19T01:38:59;4.86;;;4.86;;
71290;SDS011;59073;51.994;4.448;2022-08-19T01:41:27;4.30;;;4.30;;
71290;SDS011;59073;51.994;4.448;2022-08-19T01:43:52;4.74;;;4.74;;
71290;SDS011;59073;51.994;4.448;2022-08-19T01:46:19;4.38;;;4.38;;
71290;SDS011;59073;51.994;4.448;2022-08-19T01:48:45;4.59;;;4.59;;
71290;SDS011;59073;51.994;4.448;2022-08-19T01:51:11;5.09;;;5.09;;
71290;SDS011;59073;51.994;4.448;2022-08-19T01:53:38;5.25;;;5.25;;
71290;SDS011;59073;51.994;4.448;2022-08-19T01:56:05;4.92;;;4.92;;
71290;SDS011;59073;51.994;4.448;2022-08-19T01:58:32;4.16;;;4.16;;
71290;SDS011;59073;51.994;4.448;2022-08-19T02:01:03;3.08;;;3.08;;
71290;SDS011;59073;51.994;4.448;2022-08-19T02:03:31;3.04;;;3.04;;
71290;SDS011;59073;51.994;4.448;2022-08-19T02:05:58;3.46;;;3.46;;
71290;SDS011;59073;51.994;4.448;2022-08-19T02:08:28;3.10;;;3.10;;
71290;SDS011;59073;51.994;4.448;2022-08-19T02:10:55;3.07;;;3.07;;
71290;SDS011;59073;51.994;4.448;2022-08-19T02:13:21;2.59;;;2.59;;
71290;SDS011;59073;51.994;4.448;2022-08-19T02:15:47;2.68;;;2.68;;
71290;SDS011;59073;51.994;4.448;2022-08-19T02:18:13;1.95;;;1.95;;
71290;SDS011;59073;51.994;4.448;2022-08-19T02:20:42;1.81;;;1.81;;
71290;SDS011;59073;51.994;4.448;2022-08-19T02:23:13;1.96;;;1.96;;
71290;SDS011;59073;51.994;4.448;2022-08-19T02:25:43;2.43;;;2.43;;
71290;SDS011;59073;51.994;4.448;2022-08-19T02:28:12;4.16;;;4.16;;
71290;SDS011;59073;51.994;4.448;2022-08-19T02:30:38;5.89;;;5.89;;
71290;SDS011;59073;51.994;4.448;2022-08-19T02:33:06;5.81;;;5.81;;
71290;SDS011;59073;51.994;4.448;2022-08-19T02:35:31;6.10;;;6.10;;
71290;SDS011;59073;51.994;4.448;2022-08-19T02:37:57;6.40;;;6.39;;
71290;SDS011;59073;51.994;4.448;2022-08-19T02:40:47;6.49;;;6.49;;
71290;SDS011;59073;51.994;4.448;2022-08-19T02:43:15;6.88;;;6.88;;
71290;SDS011;59073;51.994;4.448;2022-08-19T02:45:40;6.10;;;6.10;;
71290;SDS011;59073;51.994;4.448;2022-08-19T02:48:06;5.16;;;5.16;;
71290;SDS011;59073;51.994;4.448;2022-08-19T02:50:36;5.17;;;5.17;;
71290;SDS011;59073;51.994;4.448;2022-08-19T02:53:03;4.95;;;4.91;;
71290;SDS011;59073;51.994;4.448;2022-08-19T02:55:29;6.07;;;5.92;;
71290;SDS011;59073;51.994;4.448;2022-08-19T02:57:54;7.48;;;7.30;;
71290;SDS011;59073;51.994;4.448;2022-08-19T03:00:20;7.13;;;7.03;;
71290;SDS011;59073;51.994;4.448;2022-08-19T03:02:45;7.02;;;7.02;;
71290;SDS011;59073;51.994;4.448;2022-08-19T03:05:11;7.19;;;7.19;;
71290;SDS011;59073;51.994;4.448;2022-08-19T03:07:37;7.98;;;7.98;;
71290;SDS011;59073;51.994;4.448;2022-08-19T03:10:03;7.35;;;7.35;;
71290;SDS011;59073;51.994;4.448;2022-08-19T03:12:29;8.31;;;8.30;;
71290;SDS011;59073;51.994;4.448;2022-08-19T03:14:55;8.63;;;8.58;;
71290;SDS011;59073;51.994;4.448;2022-08-19T03:17:20;7.86;;;7.78;;
71290;SDS011;59073;51.994;4.448;2022-08-19T03:19:46;8.38;;;8.33;;
71290;SDS011;59073;51.994;4.448;2022-08-19T03:22:11;8.95;;;8.89;;
71290;SDS011;59073;51.994;4.448;2022-08-19T03:24:37;8.46;;;8.45;;
71290;SDS011;59073;51.994;4.448;2022-08-19T03:27:03;9.14;;;9.14;;
71290;SDS011;59073;51.994;4.448;2022-08-19T03:29:31;9.43;;;9.43;;
71290;SDS011;59073;51.994;4.448;2022-08-19T03:32:01;8.00;;;8.00;;
71290;SDS011;59073;51.994;4.448;2022-08-19T03:34:30;7.06;;;7.06;;
71290;SDS011;59073;51.994;4.448;2022-08-19T03:36:58;5.58;;;5.58;;
71290;SDS011;59073;51.994;4.448;2022-08-19T03:39:27;5.75;;;5.75;;
71290;SDS011;59073;51.994;4.448;2022-08-19T03:41:55;5.95;;;5.95;;
71290;SDS011;59073;51.994;4.448;2022-08-19T03:44:23;7.88;;;7.80;;
71290;SDS011;59073;51.994;4.448;2022-08-19T03:46:52;6.58;;;6.50;;
71290;SDS011;59073;51.994;4.448;2022-08-19T03:49:24;6.83;;;6.82;;
71290;SDS011;59073;51.994;4.448;2022-08-19T03:51:53;8.58;;;8.57;;
71290;SDS011;59073;51.994;4.448;2022-08-19T03:54:20;9.20;;;9.11;;
71290;SDS011;59073;51.994;4.448;2022-08-19T03:56:51;9.27;;;9.06;;
71290;SDS011;59073;51.994;4.448;2022-08-19T03:59:20;9.51;;;9.45;;
71290;SDS011;59073;51.994;4.448;2022-08-19T04:01:53;9.54;;;9.50;;
71290;SDS011;59073;51.994;4.448;2022-08-19T04:04:20;9.21;;;9.17;;
71290;SDS011;59073;51.994;4.448;2022-08-19T04:06:47;9.44;;;9.39;;
71290;SDS011;59073;51.994;4.448;2022-08-19T04:09:13;8.89;;;8.83;;
71290;SDS011;59073;51.994;4.448;2022-08-19T04:11:49;8.06;;;7.97;;
71290;SDS011;59073;51.994;4.448;2022-08-19T04:14:19;10.19;;;9.99;;
71290;SDS011;59073;51.994;4.448;2022-08-19T04:16:48;11.34;;;11.19;;
71290;SDS011;59073;51.994;4.448;2022-08-19T04:19:14;11.39;;;11.28;;
71290;SDS011;59073;51.994;4.448;2022-08-19T04:21:42;10.82;;;10.77;;
71290;SDS011;59073;51.994;4.448;2022-08-19T04:24:10;13.08;;;13.00;;
71290;SDS011;59073;51.994;4.448;2022-08-19T04:26:37;13.75;;;13.67;;
71290;SDS011;59073;51.994;4.448;2022-08-19T04:29:04;15.92;;;15.63;;
71290;SDS011;59073;51.994;4.448;2022-08-19T04:31:39;16.12;;;15.94;;
71290;SDS011;59073;51.994;4.448;2022-08-19T04:34:11;16.51;;;16.26;;
71290;SDS011;59073;51.994;4.448;2022-08-19T04:36:39;16.69;;;16.53;;
71290;SDS011;59073;51.994;4.448;2022-08-19T04:39:20;16.68;;;16.44;;
71290;SDS011;59073;51.994;4.448;2022-08-19T04:42:08;16.10;;;15.92;;
71290;SDS011;59073;51.994;4.448;2022-08-19T04:44:52;16.19;;;15.84;;
71290;SDS011;59073;51.994;4.448;2022-08-19T04:47:18;15.93;;;15.80;;
71290;SDS011;59073;51.994;4.448;2022-08-19T04:49:43;15.01;;;14.79;;
71290;SDS011;59073;51.994;4.448;2022-08-19T04:52:09;15.26;;;15.05;;
71290;SDS011;59073;51.994;4.448;2022-08-19T04:54:34;14.88;;;14.68;;
71290;SDS011;59073;51.994;4.448;2022-08-19T04:57:00;14.14;;;13.99;;
71290;SDS011;59073;51.994;4.448;2022-08-19T04:59:25;14.21;;;14.04;;
71290;SDS011;59073;51.994;4.448;2022-08-19T05:01:50;14.94;;;14.81;;
71290;SDS011;59073;51.994;4.448;2022-08-19T05:04:18;14.45;;;14.15;;
71290;SDS011;59073;51.994;4.448;2022-08-19T05:06:46;14.77;;;14.48;;
71290;SDS011;59073;51.994;4.448;2022-08-19T05:09:13;15.26;;;14.97;;
71290;SDS011;59073;51.994;4.448;2022-08-19T05:11:41;14.31;;;14.18;;
71290;SDS011;59073;51.994;4.448;2022-08-19T05:14:08;13.85;;;13.70;;
71290;SDS011;59073;51.994;4.448;2022-08-19T05:16:35;13.95;;;13.85;;
71290;SDS011;59073;51.994;4.448;2022-08-19T05:19:00;14.36;;;14.20;;
71290;SDS011;59073;51.994;4.448;2022-08-19T05:21:44;13.96;;;13.90;;
71290;SDS011;59073;51.994;4.448;2022-08-19T05:24:29;13.63;;;13.59;;
71290;SDS011;59073;51.994;4.448;2022-08-19T05:26:55;13.76;;;13.69;;
71290;SDS011;59073;51.994;4.448;2022-08-19T05:29:33;13.95;;;13.90;;
71290;SDS011;59073;51.994;4.448;2022-08-19T05:32:03;13.41;;;13.37;;
71290;SDS011;59073;51.994;4.448;2022-08-19T05:34:36;13.25;;;13.23;;
71290;SDS011;59073;51.994;4.448;2022-08-19T05:37:03;14.06;;;14.01;;
71290;SDS011;59073;51.994;4.448;2022-08-19T05:39:32;14.25;;;14.21;;
71290;SDS011;59073;51.994;4.448;2022-08-19T05:42:00;13.96;;;13.91;;
71290;SDS011;59073;51.994;4.448;2022-08-19T05:44:31;13.36;;;13.32;;
71290;SDS011;59073;51.994;4.448;2022-08-19T05:46:59;13.26;;;13.25;;
71290;SDS011;59073;51.994;4.448;2022-08-19T05:49:27;13.53;;;13.50;;
71290;SDS011;59073;51.994;4.448;2022-08-19T05:51:54;13.34;;;13.28;;
71290;SDS011;59073;51.994;4.448;2022-08-19T05:54:20;13.25;;;13.22;;
71290;SDS011;59073;51.994;4.448;2022-08-19T05:56:55;12.50;;;12.50;;
71290;SDS011;59073;51.994;4.448;2022-08-19T05:59:34;13.52;;;13.52;;
71290;SDS011;59073;51.994;4.448;2022-08-19T06:02:06;13.56;;;13.51;;
71290;SDS011;59073;51.994;4.448;2022-08-19T06:04:34;12.58;;;12.57;;
71290;SDS011;59073;51.994;4.448;2022-08-19T06:07:02;13.08;;;13.08;;
71290;SDS011;59073;51.994;4.448;2022-08-19T06:09:28;12.95;;;12.94;;
71290;SDS011;59073;51.994;4.448;2022-08-19T06:11:55;13.06;;;13.06;;
71290;SDS011;59073;51.994;4.448;2022-08-19T06:14:25;12.79;;;12.79;;
71290;SDS011;59073;51.994;4.448;2022-08-19T06:16:53;13.09;;;13.09;;
71290;SDS011;59073;51.994;4.448;2022-08-19T06:19:20;12.74;;;12.74;;
71290;SDS011;59073;51.994;4.448;2022-08-19T06:21:48;13.11;;;13.11;;
71290;SDS011;59073;51.994;4.448;2022-08-19T06:24:17;12.96;;;12.96;;
71290;SDS011;59073;51.994;4.448;2022-08-19T06:26:45;12.58;;;12.58;;
71290;SDS011;59073;51.994;4.448;2022-08-19T06:29:13;11.96;;;11.96;;
71290;SDS011;59073;51.994;4.448;2022-08-19T06:31:42;11.40;;;11.40;;
71290;SDS011;59073;51.994;4.448;2022-08-19T06:34:11;12.24;;;12.24;;
71290;SDS011;59073;51.994;4.448;2022-08-19T06:36:39;11.80;;;11.80;;
71290;SDS011;59073;51.994;4.448;2022-08-19T06:39:09;11.53;;;11.53;;
71290;SDS011;59073;51.994;4.448;2022-08-19T06:41:41;11.36;;;11.35;;
71290;SDS011;59073;51.994;4.448;2022-08-19T06:44:09;10.72;;;10.72;;
71290;SDS011;59073;51.994;4.448;2022-08-19T06:46:36;11.33;;;11.33;;
71290;SDS011;59073;51.994;4.448;2022-08-19T06:49:03;10.54;;;10.54;;
71290;SDS011;59073;51.994;4.448;2022-08-19T06:51:29;10.67;;;10.67;;
71290;SDS011;59073;51.994;4.448;2022-08-19T06:53:56;11.09;;;11.08;;
71290;SDS011;59073;51.994;4.448;2022-08-19T06:56:23;10.48;;;10.46;;
71290;SDS011;59073;51.994;4.448;2022-08-19T06:58:56;10.72;;;10.62;;
71290;SDS011;59073;51.994;4.448;2022-08-19T07:01:22;11.38;;;11.34;;
71290;SDS011;59073;51.994;4.448;2022-08-19T07:03:47;10.35;;;10.35;;
71290;SDS011;59073;51.994;4.448;2022-08-19T07:06:14;10.04;;;10.04;;
71290;SDS011;59073;51.994;4.448;2022-08-19T07:08:45;10.20;;;10.20;;
71290;SDS011;59073;51.994;4.448;2022-08-19T07:11:13;10.04;;;10.04;;
71290;SDS011;59073;51.994;4.448;2022-08-19T07:13:43;10.58;;;10.58;;
71290;SDS011;59073;51.994;4.448;2022-08-19T07:16:15;10.32;;;10.32;;
71290;SDS011;59073;51.994;4.448;2022-08-19T07:18:42;9.81;;;9.81;;
71290;SDS011;59073;51.994;4.448;2022-08-19T07:21:10;9.35;;;9.35;;
71290;SDS011;59073;51.994;4.448;2022-08-19T07:24:05;9.34;;;9.34;;
71290;SDS011;59073;51.994;4.448;2022-08-19T07:26:31;8.54;;;8.54;;
71290;SDS011;59073;51.994;4.448;2022-08-19T07:29:04;8.55;;;8.55;;
71290;SDS011;59073;51.994;4.448;2022-08-19T07:31:43;8.32;;;8.32;;
71290;SDS011;59073;51.994;4.448;2022-08-19T07:34:18;8.44;;;8.44;;
71290;SDS011;59073;51.994;4.448;2022-08-19T07:36:47;8.18;;;8.18;;
71290;SDS011;59073;51.994;4.448;2022-08-19T07:39:42;7.22;;;7.22;;
71290;SDS011;59073;51.994;4.448;2022-08-19T07:42:10;7.81;;;7.81;;
71290;SDS011;59073;51.994;4.448;2022-08-19T07:44:47;7.95;;;7.95;;
71290;SDS011;59073;51.994;4.448;2022-08-19T07:59:34;6.75;;;6.75;;
71290;SDS011;59073;51.994;4.448;2022-08-19T08:02:10;6.49;;;6.49;;
71290;SDS011;59073;51.994;4.448;2022-08-19T08:04:38;6.64;;;6.64;;
71290;SDS011;59073;51.994;4.448;2022-08-19T08:07:22;6.10;;;6.10;;
71290;SDS011;59073;51.994;4.448;2022-08-19T08:10:06;6.01;;;6.01;;
71290;SDS011;59073;51.994;4.448;2022-08-19T08:12:39;5.83;;;5.83;;
71290;SDS011;59073;51.994;4.448;2022-08-19T08:15:12;5.55;;;5.55;;
71290;SDS011;59073;51.994;4.448;2022-08-19T08:17:46;5.87;;;5.87;;
71290;SDS011;59073;51.994;4.448;2022-08-19T08:20:15;5.77;;;5.77;;
71290;SDS011;59073;51.994;4.448;2022-08-19T08:26:47;5.59;;;5.59;;
71290;SDS011;59073;51.994;4.448;2022-08-19T08:39:51;4.76;;;4.76;;
71290;SDS011;59073;51.994;4.448;2022-08-19T09:02:31;3.67;;;3.67;;
71290;SDS011;59073;51.994;4.448;2022-08-19T09:05:12;3.50;;;3.50;;
71290;SDS011;59073;51.994;4.448;2022-08-19T09:08:00;3.32;;;3.32;;
71290;SDS011;59073;51.994;4.448;2022-08-19T09:10:57;3.32;;;3.32;;
71290;SDS011;59073;51.994;4.448;2022-08-19T09:17:07;3.16;;;3.16;;
71290;SDS011;59073;51.994;4.448;2022-08-19T09:22:34;3.02;;;3.02;;
71290;SDS011;59073;51.994;4.448;2022-08-19T09:25:18;2.93;;;2.93;;
71290;SDS011;59073;51.994;4.448;2022-08-19T09:27:48;2.93;;;2.93;;
71290;SDS011;59073;51.994;4.448;2022-08-19T10:23:19;2.00;;;2.00;;
71290;SDS011;59073;51.994;4.448;2022-08-19T10:25:46;1.91;;;1.91;;
71290;SDS011;59073;51.994;4.448;2022-08-19T10:28:11;1.71;;;1.71;;
71290;SDS011;59073;51.994;4.448;2022-08-19T10:30:38;1.40;;;1.40;;
71290;SDS011;59073;51.994;4.448;2022-08-19T10:33:05;1.59;;;1.59;;
71290;SDS011;59073;51.994;4.448;2022-08-19T10:35:31;1.36;;;1.36;;
71290;SDS011;59073;51.994;4.448;2022-08-19T10:37:58;1.54;;;1.54;;
71290;SDS011;59073;51.994;4.448;2022-08-19T10:40:24;1.22;;;1.22;;
71290;SDS011;59073;51.994;4.448;2022-08-19T10:42:52;1.14;;;1.14;;
71290;SDS011;59073;51.994;4.448;2022-08-19T10:45:18;1.42;;;1.42;;
71290;SDS011;59073;51.994;4.448;2022-08-19T10:47:45;1.31;;;1.31;;
71290;SDS011;59073;51.994;4.448;2022-08-19T10:50:11;1.24;;;1.24;;
71290;SDS011;59073;51.994;4.448;2022-08-19T10:52:55;1.35;;;1.35;;
71290;SDS011;59073;51.994;4.448;2022-08-19T10:55:21;1.28;;;1.28;;
71290;SDS011;59073;51.994;4.448;2022-08-19T10:58:09;1.40;;;1.40;;
71290;SDS011;59073;51.994;4.448;2022-08-19T11:00:39;1.38;;;1.38;;
71290;SDS011;59073;51.994;4.448;2022-08-19T11:03:05;1.34;;;1.34;;
71290;SDS011;59073;51.994;4.448;2022-08-19T11:05:31;1.36;;;1.36;;
71290;SDS011;59073;51.994;4.448;2022-08-19T11:07:56;1.33;;;1.33;;
71290;SDS011;59073;51.994;4.448;2022-08-19T11:10:22;1.31;;;1.31;;
71290;SDS011;59073;51.994;4.448;2022-08-19T11:12:48;1.43;;;1.43;;
71290;SDS011;59073;51.994;4.448;2022-08-19T11:15:19;1.31;;;1.31;;
71290;SDS011;59073;51.994;4.448;2022-08-19T11:17:44;1.29;;;1.29;;
71290;SDS011;59073;51.994;4.448;2022-08-19T11:20:11;1.16;;;1.16;;
71290;SDS011;59073;51.994;4.448;2022-08-19T11:25:39;1.08;;;1.08;;
71290;SDS011;59073;51.994;4.448;2022-08-19T11:28:05;0.91;;;0.91;;
71290;SDS011;59073;51.994;4.448;2022-08-19T11:30:30;0.86;;;0.86;;
71290;SDS011;59073;51.994;4.448;2022-08-19T11:32:56;0.82;;;0.82;;
71290;SDS011;59073;51.994;4.448;2022-08-19T11:35:22;0.94;;;0.94;;
71290;SDS011;59073;51.994;4.448;2022-08-19T11:37:48;0.76;;;0.76;;
71290;SDS011;59073;51.994;4.448;2022-08-19T11:40:13;1.05;;;1.05;;
71290;SDS011;59073;51.994;4.448;2022-08-19T11:42:39;1.24;;;1.24;;
71290;SDS011;59073;51.994;4.448;2022-08-19T11:45:21;1.27;;;1.27;;
71290;SDS011;59073;51.994;4.448;2022-08-19T11:48:01;1.46;;;1.46;;
71290;SDS011;59073;51.994;4.448;2022-08-19T11:50:27;1.53;;;1.53;;
71290;SDS011;59073;51.994;4.448;2022-08-19T11:52:54;1.59;;;1.59;;
71290;SDS011;59073;51.994;4.448;2022-08-19T11:55:28;1.37;;;1.37;;
71290;SDS011;59073;51.994;4.448;2022-08-19T11:57:54;1.26;;;1.26;;
71290;SDS011;59073;51.994;4.448;2022-08-19T12:00:19;1.20;;;1.20;;
71290;SDS011;59073;51.994;4.448;2022-08-19T12:02:44;1.22;;;1.22;;
71290;SDS011;59073;51.994;4.448;2022-08-19T12:05:10;1.18;;;1.18;;
71290;SDS011;59073;51.994;4.448;2022-08-19T12:07:35;1.33;;;1.33;;
71290;SDS011;59073;51.994;4.448;2022-08-19T12:10:01;1.11;;;1.11;;
71290;SDS011;59073;51.994;4.448;2022-08-19T12:12:29;1.15;;;1.15;;
71290;SDS011;59073;51.994;4.448;2022-08-19T12:14:55;1.22;;;1.22;;
71290;SDS011;59073;51.994;4.448;2022-08-19T12:17:23;1.24;;;1.24;;
71290;SDS011;59073;51.994;4.448;2022-08-19T12:19:51;1.39;;;1.39;;
71290;SDS011;59073;51.994;4.448;2022-08-19T12:22:17;1.50;;;1.50;;
71290;SDS011;59073;51.994;4.448;2022-08-19T12:24:43;1.45;;;1.45;;
71290;SDS011;59073;51.994;4.448;2022-08-19T12:27:09;1.56;;;1.56;;
71290;SDS011;59073;51.994;4.448;2022-08-19T12:29:34;1.28;;;1.28;;
71290;SDS011;59073;51.994;4.448;2022-08-19T12:32:02;1.35;;;1.35;;
71290;SDS011;59073;51.994;4.448;2022-08-19T12:34:28;1.50;;;1.50;;
71290;SDS011;59073;51.994;4.448;2022-08-19T12:36:58;1.36;;;1.36;;
71290;SDS011;59073;51.994;4.448;2022-08-19T12:39:27;1.31;;;1.31;;
71290;SDS011;59073;51.994;4.448;2022-08-19T12:41:53;1.34;;;1.34;;
71290;SDS011;59073;51.994;4.448;2022-08-19T12:44:18;1.38;;;1.38;;
71290;SDS011;59073;51.994;4.448;2022-08-19T12:46:47;1.31;;;1.31;;
71290;SDS011;59073;51.994;4.448;2022-08-19T12:49:14;1.18;;;1.18;;
71290;SDS011;59073;51.994;4.448;2022-08-19T12:51:40;1.29;;;1.29;;
71290;SDS011;59073;51.994;4.448;2022-08-19T12:54:07;1.20;;;1.20;;
71290;SDS011;59073;51.994;4.448;2022-08-19T12:56:33;1.22;;;1.22;;
71290;SDS011;59073;51.994;4.448;2022-08-19T12:59:01;1.39;;;1.39;;
71290;SDS011;59073;51.994;4.448;2022-08-19T13:01:27;1.49;;;1.49;;
71290;SDS011;59073;51.994;4.448;2022-08-19T13:03:58;1.36;;;1.36;;
71290;SDS011;59073;51.994;4.448;2022-08-19T13:06:25;1.42;;;1.42;;
71290;SDS011;59073;51.994;4.448;2022-08-19T13:08:51;1.47;;;1.47;;
71290;SDS011;59073;51.994;4.448;2022-08-19T13:11:20;1.53;;;1.53;;
71290;SDS011;59073;51.994;4.448;2022-08-19T13:13:49;1.32;;;1.32;;
71290;SDS011;59073;51.994;4.448;2022-08-19T13:16:17;1.26;;;1.26;;
71290;SDS011;59073;51.994;4.448;2022-08-19T13:18:44;1.04;;;1.04;;
71290;SDS011;59073;51.994;4.448;2022-08-19T13:21:17;1.11;;;1.11;;
71290;SDS011;59073;51.994;4.448;2022-08-19T13:23:45;1.04;;;1.04;;
71290;SDS011;59073;51.994;4.448;2022-08-19T13:26:11;0.78;;;0.78;;
71290;SDS011;59073;51.994;4.448;2022-08-19T13:28:38;0.89;;;0.89;;
71290;SDS011;59073;51.994;4.448;2022-08-19T13:31:24;0.87;;;0.87;;
71290;SDS011;59073;51.994;4.448;2022-08-19T13:34:09;0.84;;;0.84;;
71290;SDS011;59073;51.994;4.448;2022-08-19T13:36:36;0.74;;;0.74;;
71290;SDS011;59073;51.994;4.448;2022-08-19T13:39:03;0.92;;;0.92;;
71290;SDS011;59073;51.994;4.448;2022-08-19T13:41:30;1.11;;;1.11;;
71290;SDS011;59073;51.994;4.448;2022-08-19T13:43:56;0.87;;;0.87;;
71290;SDS011;59073;51.994;4.448;2022-08-19T13:46:22;0.57;;;0.57;;
71290;SDS011;59073;51.994;4.448;2022-08-19T13:48:47;0.68;;;0.68;;
71290;SDS011;59073;51.994;4.448;2022-08-19T13:51:14;0.69;;;0.69;;
71290;SDS011;59073;51.994;4.448;2022-08-19T13:53:42;0.74;;;0.74;;
71290;SDS011;59073;51.994;4.448;2022-08-19T13:56:10;0.57;;;0.57;;
71290;SDS011;59073;51.994;4.448;2022-08-19T13:58:38;0.66;;;0.66;;
71290;SDS011;59073;51.994;4.448;2022-08-19T14:01:04;0.71;;;0.71;;
71290;SDS011;59073;51.994;4.448;2022-08-19T14:03:31;0.70;;;0.70;;
71290;SDS011;59073;51.994;4.448;2022-08-19T14:05:58;0.78;;;0.78;;
71290;SDS011;59073;51.994;4.448;2022-08-19T14:08:24;0.67;;;0.67;;
71290;SDS011;59073;51.994;4.448;2022-08-19T14:10:53;0.77;;;0.77;;
71290;SDS011;59073;51.994;4.448;2022-08-19T14:13:20;0.77;;;0.77;;
71290;SDS011;59073;51.994;4.448;2022-08-19T14:15:48;0.83;;;0.83;;
71290;SDS011;59073;51.994;4.448;2022-08-19T14:18:17;0.64;;;0.64;;
71290;SDS011;59073;51.994;4.448;2022-08-19T14:20:44;0.82;;;0.82;;
71290;SDS011;59073;51.994;4.448;2022-08-19T14:23:12;0.79;;;0.79;;
71290;SDS011;59073;51.994;4.448;2022-08-19T14:25:38;0.68;;;0.68;;
71290;SDS011;59073;51.994;4.448;2022-08-19T14:28:04;0.80;;;0.80;;
71290;SDS011;59073;51.994;4.448;2022-08-19T14:30:31;0.78;;;0.78;;
71290;SDS011;59073;51.994;4.448;2022-08-19T14:33:00;0.97;;;0.97;;
71290;SDS011;59073;51.994;4.448;2022-08-19T14:35:27;0.87;;;0.87;;
71290;SDS011;59073;51.994;4.448;2022-08-19T14:37:55;0.78;;;0.78;;
71290;SDS011;59073;51.994;4.448;2022-08-19T14:40:23;0.79;;;0.79;;
71290;SDS011;59073;51.994;4.448;2022-08-19T14:42:51;0.69;;;0.69;;
71290;SDS011;59073;51.994;4.448;2022-08-19T14:45:20;0.75;;;0.75;;
71290;SDS011;59073;51.994;4.448;2022-08-19T14:47:46;0.72;;;0.72;;
71290;SDS011;59073;51.994;4.448;2022-08-19T14:50:12;0.82;;;0.82;;
71290;SDS011;59073;51.994;4.448;2022-08-19T14:52:43;1.03;;;1.03;;
71290;SDS011;59073;51.994;4.448;2022-08-19T14:55:16;1.06;;;1.06;;
71290;SDS011;59073;51.994;4.448;2022-08-19T14:57:43;1.06;;;1.06;;
71290;SDS011;59073;51.994;4.448;2022-08-19T15:00:12;1.20;;;1.20;;
71290;SDS011;59073;51.994;4.448;2022-08-19T15:02:39;1.31;;;1.31;;
71290;SDS011;59073;51.994;4.448;2022-08-19T15:05:05;1.13;;;1.13;;
71290;SDS011;59073;51.994;4.448;2022-08-19T15:07:31;1.15;;;1.15;;
71290;SDS011;59073;51.994;4.448;2022-08-19T15:09:57;1.36;;;1.36;;
71290;SDS011;59073;51.994;4.448;2022-08-19T15:12:23;1.15;;;1.15;;
71290;SDS011;59073;51.994;4.448;2022-08-19T15:14:49;1.32;;;1.32;;
71290;SDS011;59073;51.994;4.448;2022-08-19T15:17:16;1.32;;;1.32;;
71290;SDS011;59073;51.994;4.448;2022-08-19T15:19:42;1.15;;;1.15;;
71290;SDS011;59073;51.994;4.448;2022-08-19T15:22:08;1.11;;;1.11;;
71290;SDS011;59073;51.994;4.448;2022-08-19T15:24:34;1.13;;;1.13;;
71290;SDS011;59073;51.994;4.448;2022-08-19T15:27:00;1.02;;;1.02;;
71290;SDS011;59073;51.994;4.448;2022-08-19T15:29:26;1.16;;;1.16;;
71290;SDS011;59073;51.994;4.448;2022-08-19T15:36:04;0.53;;;0.53;;
71290;SDS011;59073;51.994;4.448;2022-08-19T15:38:48;0.61;;;0.61;;
71290;SDS011;59073;51.994;4.448;2022-08-19T15:48:50;0.57;;;0.57;;
71290;SDS011;59073;51.994;4.448;2022-08-19T15:51:26;0.49;;;0.49;;
71290;SDS011;59073;51.994;4.448;2022-08-19T15:57:03;0.61;;;0.61;;
71290;SDS011;59073;51.994;4.448;2022-08-19T16:03:16;0.58;;;0.58;;
71290;SDS011;59073;51.994;4.448;2022-08-19T16:06:00;0.45;;;0.45;;
71290;SDS011;59073;51.994;4.448;2022-08-19T16:08:44;0.60;;;0.60;;
71290;SDS011;59073;51.994;4.448;2022-08-19T16:11:30;0.60;;;0.60;;
71290;SDS011;59073;51.994;4.448;2022-08-19T16:14:28;0.72;;;0.72;;
71290;SDS011;59073;51.994;4.448;2022-08-19T16:39:19;0.79;;;0.79;;
71290;SDS011;59073;51.994;4.448;2022-08-19T16:51:32;0.89;;;0.89;;
71290;SDS011;59073;51.994;4.448;2022-08-19T16:57:40;0.99;;;0.99;;
71290;SDS011;59073;51.994;4.448;2022-08-19T17:00:15;0.97;;;0.97;;
71290;SDS011;59073;51.994;4.448;2022-08-19T17:02:41;1.00;;;1.00;;
71290;SDS011;59073;51.994;4.448;2022-08-19T17:05:07;1.07;;;1.07;;
71290;SDS011;59073;51.994;4.448;2022-08-19T17:07:47;0.95;;;0.95;;
71290;SDS011;59073;51.994;4.448;2022-08-19T17:10:12;1.14;;;1.14;;
71290;SDS011;59073;51.994;4.448;2022-08-19T17:12:38;1.13;;;1.13;;
71290;SDS011;59073;51.994;4.448;2022-08-19T17:15:06;1.33;;;1.33;;
71290;SDS011;59073;51.994;4.448;2022-08-19T17:17:32;1.40;;;1.40;;
71290;SDS011;59073;51.994;4.448;2022-08-19T17:19:59;1.50;;;1.50;;
71290;SDS011;59073;51.994;4.448;2022-08-19T17:22:43;1.26;;;1.26;;
71290;SDS011;59073;51.994;4.448;2022-08-19T17:25:09;1.36;;;1.36;;
71290;SDS011;59073;51.994;4.448;2022-08-19T17:27:40;1.42;;;1.42;;
71290;SDS011;59073;51.994;4.448;2022-08-19T17:30:06;1.54;;;1.54;;
71290;SDS011;59073;51.994;4.448;2022-08-19T17:32:32;1.59;;;1.59;;
71290;SDS011;59073;51.994;4.448;2022-08-19T17:35:09;1.73;;;1.73;;
71290;SDS011;59073;51.994;4.448;2022-08-19T17:37:55;1.84;;;1.84;;
71290;SDS011;59073;51.994;4.448;2022-08-19T17:40:21;1.69;;;1.69;;